Adrian, Ohio
Current Conditions -  °F | °C
As of 10:53 AM on Friday 21 Nov 2014 (Local Time) from KFDY Reporting Station
Clear Clear  
Wind Chill: 16°   Ceiling: Unl
Heat Index: 22°   Visibility: 10mi
Dew Point: 12°   Wind: 5mph
Humidity: 66%   Direction: 280°W
Pressure: 30.5"   Gusts: NA
Location:  41°N, 83.32°W
Report Text: KFDY 211553Z AUTO 28004KT 10SM CLR M06/M11 A3050 RMK AO2 SLP337 T10561111
Loading
Personal Weather Stations






























Interactive Weather Map New forecast layout! Learn more

10-Day Weather Forecast

Advertisements
Track Severe Weather on mobile